Flight Track Log - Related Links

Times and Time Zones

All times are in EDT time to prevent confusion due to time zone crossing. See the AWE1044 flight status page for this flight to view local times or setup timezone preferences in your user account.


Time Position Orientation Groundspeed Altitude Reporting Facility
EDT Latitude Longitude Course Direction KTS MPH feet Rate Location/Type
Sat 06:11:36 PM 35.2014 -80.9378 72° East 148 170 1,400  Level Atlanta Center
Sat 06:12:37 PM 35.1511 -80.9294 172° South 185 213 3,400 2,311 Climbing Atlanta Center
Sat 06:13:38 PM 35.0994 -80.8731 138° Southeast 265 305 6,100 2,951 Climbing Atlanta Center
Sat 06:14:00 PM 35.1627 -80.5916 29° Northeast  Level FlightAware Approximate
Sat 06:14:39 PM 35.0992 -80.7767 90° East 303 349 9,400  Level Atlanta Center
Sat 06:15:00 PM 35.2471 -80.5331 30° Northeast  Level FlightAware Approximate
Sat 06:15:08 PM 35.1017 -80.7208 87° East 301 346 10,500  Level Atlanta Center
Sat 06:15:40 PM 35.1192 -80.6692 67° East 343 395 11,400 2,300 Climbing Atlanta Center
Sat 06:16:00 PM 35.3195 -80.4667 North  Level FlightAware Approximate
Sat 06:16:08 PM 35.1450 -80.6225 56° Northeast 367 422 12,800  Level Atlanta Center
Sat 06:17:00 PM 35.3590 -80.3697 72° East  Level FlightAware Approximate
Sat 06:17:08 PM 35.2028 -80.5261 54° Northeast 367 422 15,600  Level Atlanta Center
Sat 06:19:38 PM 35.3572 -80.2706 53° Northeast 388 447 21,400 2,200 Climbing Washington Center
Sat 06:20:38 PM 35.4219 -80.1622 54° Northeast 388 447 23,300 1,627 Climbing Washington Center
Sat 06:21:36 PM 35.4597 -80.0469 68° East 394 453 24,600 1,613 Climbing Washington Center
Sat 06:22:37 PM 35.4942 -79.9033 74° East 409 471 26,500 1,190 Climbing Washington Center
Sat 06:23:37 PM 35.5306 -79.7600 73° East 422 486 27,000 246 Climbing Washington Center
Sat 06:24:39 PM 35.5667 -79.6214 72° East 428 493 27,000 807 Level Washington Center
Sat 06:25:36 PM 35.6025 -79.4800 73° East 433 498 28,600 1,026 Climbing Washington Center
Sat 06:26:36 PM 35.6486 -79.3494 66° East 418 481 29,000 198 Climbing Washington Center
Sat 06:27:37 PM 35.7231 -79.2353 51° Northeast 412 474 29,000  Level Washington Center
Sat 06:28:37 PM 35.8133 -79.1422 40° Northeast 417 480 29,000  Level Washington Center
Sat 06:29:38 PM 35.9039 -79.0486 40° Northeast 412 474 29,000  Level Washington Center
Sat 06:30:36 PM 35.9942 -78.9550 40° Northeast 417 480 29,000  Level Washington Center
Sat 06:31:37 PM 36.0822 -78.8611 41° Northeast 417 480 29,000  Level Washington Center
Sat 06:32:37 PM 36.1681 -78.7694 41° Northeast 411 473 29,000  Level Washington Center
Sat 06:33:38 PM 36.2583 -78.6753 40° Northeast 411 473 29,000  Level Washington Center
Sat 06:34:38 PM 36.3461 -78.5808 41° Northeast 416 479 29,000  Level Washington Center
Sat 06:35:39 PM 36.4339 -78.4886 40° Northeast 416 479 29,000  Level Washington Center
Sat 06:36:36 PM 36.5219 -78.3936 41° Northeast 416 479 29,000 -400 Level Washington Center
Sat 06:37:39 PM 36.6075 -78.3011 41° Northeast 411 473 28,200 -700 Descending Washington Center
Sat 06:38:36 PM 36.6950 -78.2056 41° Northeast 411 473 27,600 -814 Descending Washington Center
Sat 06:39:37 PM 36.7806 -78.1100 42° Northeast 411 473 26,600 -992 Descending Washington Center
Sat 06:40:37 PM 36.8658 -78.0219 40° Northeast 405 466 25,600 -992 Descending Washington Center
Sat 06:41:38 PM 36.9489 -77.9308 41° Northeast 399 459 24,600 -992 Descending Washington Center
Sat 06:42:38 PM 37.0278 -77.8422 42° Northeast 389 448 23,600 -793 Descending Washington Center
Sat 06:43:39 PM 37.1208 -77.7878 25° Northeast 382 440 23,000 -305 Descending Washington Center
Sat 06:44:36 PM 37.2156 -77.7408 22° Northeast 361 415 23,000  Level Washington Center
Sat 06:45:37 PM 37.3122 -77.6886 23° Northeast 361 415 23,000  Level Washington Center
Sat 06:46:37 PM 37.4069 -77.6442 20° North 361 415 23,000  Level Washington Center
Sat 06:47:38 PM 37.4994 -77.5969 22° Northeast 361 415 23,000  Level Washington Center
Sat 06:48:38 PM 37.5942 -77.5469 23° Northeast 356 410 23,000  Level Washington Center
Sat 06:49:36 PM 37.6889 -77.4969 23° Northeast 356 410 23,000 -407 Level Washington Center
Sat 06:50:36 PM 37.7814 -77.4494 22° Northeast 356 410 22,200 -900 Descending Washington Center
Sat 06:51:36 PM 37.8739 -77.3992 23° Northeast 356 410 21,200 -934 Descending Washington Center
Sat 06:52:38 PM 37.9642 -77.3539 22° Northeast 356 410 20,300 -984 Descending Washington Center
Sat 06:53:38 PM 38.0631 -77.3061 21° North 350 403 19,200 -1,050 Descending Washington Center
Sat 06:54:38 PM 38.1533 -77.2633 20° North 345 397 18,200 -966 Descending Washington Center
Sat 06:55:36 PM 38.2394 -77.2150 24° Northeast 345 397 17,300 -1,068 Descending Washington Center
Sat 06:56:36 PM 38.3278 -77.1664 23° Northeast 340 391 16,100 -1,438 Descending Washington Center
Sat 06:57:37 PM 38.4097 -77.1047 31° Northeast 334 384 14,400 -1,587 Descending Washington Center
Sat 06:58:37 PM 38.4775 -77.0211 44° Northeast 334 384 12,900 -1,377 Descending Washington Center
Sat 06:59:39 PM 38.5450 -76.9428 42° Northeast 334 384 11,600 -1,210 Descending Washington Center
Sat 07:00:36 PM 38.6106 -76.8617 44° Northeast 323 372 10,500 -1,026 Descending Washington Center
Sat 07:01:36 PM 38.6719 -76.7883 43° Northeast 313 360 9,600 -1,259 Descending Washington Center
Sat 07:04:01 PM 38.7833 -76.5833 55° Northeast 292 336 6,200 -1,171 Descending Potomac TRACON
Sat 07:05:01 PM 38.8333 -76.5333 38° Northeast 286 329 5,600 -1,048 Descending Potomac TRACON
Sat 07:06:07 PM 38.9167 -76.5500 351° North 238 274 4,000 -850 Descending Potomac TRACON
Sat 07:07:01 PM 38.9500 -76.5667 339° North 177 204 3,900 -684 Descending Potomac TRACON
Sat 07:08:01 PM 39.0000 -76.5833 345° North 176 203 2,700 -1,000 Descending Potomac TRACON
Sat 07:09:01 PM 39.0500 -76.6000 345° North 171 197 1,900 -800 Descending Potomac TRACON

Login

Don't have an account? Register now (free) for customized features, flight alerts, and more!